createdAt,value
2018-03-04T00:02:06.717Z,60.70
2018-03-04T00:04:35.530Z,60.61
2018-03-04T00:07:04.676Z,60.15
2018-03-04T00:09:34.189Z,59.68
2018-03-04T00:12:03.244Z,60.04
2018-03-04T00:14:32.376Z,60.02
2018-03-04T00:17:01.463Z,60.70
2018-03-04T00:19:30.557Z,61.35
2018-03-04T00:21:59.494Z,61.46
2018-03-04T00:24:28.502Z,61.50
2018-03-04T00:26:57.436Z,61.18
2018-03-04T00:29:26.340Z,61.46
2018-03-04T00:31:55.332Z,61.89
2018-03-04T00:34:24.316Z,62.32
2018-03-04T00:36:53.418Z,62.08
2018-03-04T00:39:22.279Z,62.24
2018-03-04T00:41:51.386Z,62.30
2018-03-04T00:44:20.476Z,62.60
2018-03-04T00:46:49.407Z,62.36
2018-03-04T00:49:18.167Z,62.29
2018-03-04T00:51:47.021Z,62.61
2018-03-04T00:54:15.791Z,63.05
2018-03-04T00:56:44.711Z,63.27
2018-03-04T00:59:14.034Z,63.39
2018-03-04T01:01:43.553Z,63.04
2018-03-04T01:04:12.674Z,63.28
2018-03-04T01:06:41.477Z,63.33
2018-03-04T01:09:10.422Z,63.24
2018-03-04T01:11:39.517Z,63.53
2018-03-04T01:14:15.681Z,63.39
2018-03-04T01:16:44.470Z,63.67
2018-03-04T01:19:13.261Z,63.66
2018-03-04T01:21:42.408Z,63.74
2018-03-04T01:24:11.245Z,63.92
2018-03-04T01:26:40.058Z,63.53
2018-03-04T01:29:08.926Z,63.61
2018-03-04T01:31:37.663Z,63.77
2018-03-04T01:34:06.596Z,63.98
2018-03-04T01:36:35.687Z,63.92
2018-03-04T01:39:04.846Z,63.40
2018-03-04T01:41:33.605Z,64.02
2018-03-04T01:44:02.449Z,64.04
2018-03-04T01:47:34.838Z,64.22
2018-03-04T01:50:03.802Z,64.45
2018-03-04T01:52:32.520Z,64.06
2018-03-04T01:55:01.511Z,63.82
2018-03-04T01:57:30.413Z,64.24
2018-03-04T01:59:59.177Z,64.48
2018-03-04T02:02:27.992Z,64.52
2018-03-04T02:04:56.866Z,64.79
2018-03-04T02:07:25.973Z,65.07
2018-03-04T02:09:54.883Z,65.01
2018-03-04T02:12:23.957Z,65.14
2018-03-04T02:14:53.018Z,64.60
2018-03-04T02:17:21.880Z,65.00
2018-03-04T02:19:50.731Z,65.40
2018-03-04T02:22:19.714Z,65.30
2018-03-04T02:24:48.479Z,65.24
2018-03-04T02:27:17.206Z,65.22
2018-03-04T02:29:46.182Z,65.54
2018-03-04T02:32:14.993Z,65.38
2018-03-04T02:35:46.868Z,65.60
2018-03-04T02:38:15.930Z,65.56
2018-03-04T02:40:44.848Z,65.37
2018-03-04T02:43:13.622Z,65.30
2018-03-04T02:45:43.002Z,65.76
2018-03-04T02:48:12.116Z,65.51
2018-03-04T02:50:41.201Z,65.68
2018-03-04T02:53:10.424Z,65.60
2018-03-04T02:55:39.413Z,65.99
2018-03-04T02:58:08.202Z,65.92
2018-03-04T03:00:36.910Z,66.10
2018-03-04T03:03:05.861Z,65.84
2018-03-04T03:05:34.746Z,64.90
2018-03-04T03:08:03.855Z,65.57
2018-03-04T03:10:32.735Z,65.61
2018-03-04T03:13:01.654Z,66.15
2018-03-04T03:15:31.141Z,66.27
2018-03-04T03:17:59.897Z,66.35
2018-03-04T03:20:28.869Z,66.03
2018-03-04T03:22:58.231Z,66.19
2018-03-04T03:25:27.306Z,66.47
2018-03-04T03:27:56.086Z,66.30
2018-03-04T03:30:24.956Z,66.14
2018-03-04T03:32:53.626Z,66.04
2018-03-04T03:35:22.733Z,65.70
2018-03-04T03:37:51.961Z,66.22
2018-03-04T03:40:20.888Z,66.64
2018-03-04T03:42:49.784Z,66.92
2018-03-04T03:45:18.820Z,66.60
2018-03-04T03:47:48.133Z,66.75
2018-03-04T03:50:17.030Z,66.84
2018-03-04T03:52:46.240Z,66.71
2018-03-04T03:55:15.229Z,66.76
2018-03-04T03:57:44.314Z,66.81
2018-03-04T04:00:13.224Z,67.10
2018-03-04T04:02:41.977Z,67.45
2018-03-04T04:05:11.005Z,67.44
2018-03-04T04:07:39.777Z,67.41
2018-03-04T04:10:08.562Z,67.35
2018-03-04T04:12:37.668Z,67.71
2018-03-04T04:15:06.757Z,67.81
2018-03-04T04:17:35.643Z,67.48
2018-03-04T04:20:04.814Z,67.75
2018-03-04T04:22:33.518Z,67.54
2018-03-04T04:25:02.259Z,67.81
2018-03-04T04:27:31.410Z,67.55
2018-03-04T04:30:00.362Z,67.44
2018-03-04T04:32:29.126Z,67.50
2018-03-04T04:34:58.201Z,67.13
2018-03-04T04:37:27.189Z,66.81
2018-03-04T04:39:55.992Z,67.21
2018-03-04T04:42:25.226Z,66.29
2018-03-04T04:44:53.934Z,66.88
2018-03-04T04:47:22.768Z,67.41
2018-03-04T04:49:51.843Z,67.33
2018-03-04T04:52:20.721Z,67.43
2018-03-04T04:54:49.405Z,67.47
2018-03-04T04:57:18.387Z,67.46
2018-03-04T04:59:47.194Z,67.58
2018-03-04T05:05:17.943Z,66.88
2018-03-04T05:07:46.846Z,66.78
2018-03-04T05:10:15.728Z,66.28
2018-03-04T05:12:44.830Z,66.45
2018-03-04T05:15:13.715Z,66.66
2018-03-04T05:17:42.744Z,66.29
2018-03-04T05:20:11.909Z,67.23
2018-03-04T05:22:41.114Z,66.98
2018-03-04T05:25:10.207Z,66.86
2018-03-04T05:27:38.987Z,67.51
2018-03-04T05:30:07.870Z,67.25
2018-03-04T05:32:36.763Z,67.88
2018-03-04T05:35:05.825Z,68.00
2018-03-04T05:37:34.734Z,67.88
2018-03-04T05:40:03.725Z,67.96
2018-03-04T05:42:32.743Z,67.93
2018-03-04T05:45:01.804Z,68.08
2018-03-04T05:47:30.766Z,68.04
2018-03-04T05:49:59.823Z,67.77
2018-03-04T05:52:28.774Z,67.98
2018-03-04T05:54:57.801Z,68.30
2018-03-04T05:57:27.079Z,67.90
2018-03-04T05:59:55.991Z,67.49
2018-03-04T06:02:25.089Z,68.21
2018-03-04T06:04:54.179Z,68.04
2018-03-04T06:07:23.062Z,68.29
2018-03-04T06:09:51.903Z,67.54
2018-03-04T06:12:20.876Z,67.81
2018-03-04T06:14:49.655Z,68.28
2018-03-04T06:17:18.642Z,67.26
2018-03-04T06:19:47.731Z,67.91
2018-03-04T06:22:16.837Z,67.98
2018-03-04T06:24:46.243Z,68.05
2018-03-04T06:27:15.161Z,67.58
2018-03-04T06:29:44.213Z,67.14
2018-03-04T06:32:13.314Z,66.48
2018-03-04T06:34:42.200Z,67.15
2018-03-04T06:37:11.087Z,66.55
2018-03-04T06:39:39.912Z,65.55
2018-03-04T06:42:09.088Z,66.28
2018-03-04T06:44:38.347Z,65.96
2018-03-04T06:47:07.245Z,65.21
2018-03-04T06:49:36.324Z,64.85
2018-03-04T06:52:05.204Z,64.42
2018-03-04T06:54:34.156Z,63.86
2018-03-04T06:57:03.667Z,63.38
2018-03-04T06:59:33.206Z,63.11
2018-03-04T07:02:02.633Z,61.98
2018-03-04T07:04:31.822Z,61.51
2018-03-04T07:07:00.843Z,61.11
2018-03-04T07:09:30.155Z,62.02
2018-03-04T07:11:59.039Z,61.92
2018-03-04T07:14:28.422Z,60.96
2018-03-04T07:16:57.506Z,61.41
2018-03-04T07:19:26.230Z,60.36
2018-03-04T07:21:55.623Z,59.80
2018-03-04T07:24:24.932Z,59.96
2018-03-04T07:26:53.812Z,60.18
2018-03-04T07:29:23.128Z,59.54
2018-03-04T07:31:52.016Z,59.53
2018-03-04T07:34:20.896Z,59.20
2018-03-04T07:36:49.792Z,59.36
2018-03-04T07:39:18.671Z,59.16
2018-03-04T07:41:47.578Z,58.75
2018-03-04T07:44:17.086Z,57.54
2018-03-04T07:46:46.020Z,57.46
2018-03-04T07:49:15.471Z,57.69
2018-03-04T07:51:44.834Z,57.85
2018-03-04T07:54:14.027Z,57.36
2018-03-04T07:56:43.160Z,56.54
2018-03-04T07:59:12.466Z,56.40
2018-03-04T08:01:41.351Z,56.08
2018-03-04T08:04:10.256Z,57.41
2018-03-04T08:06:39.121Z,56.91
2018-03-04T08:09:08.216Z,57.06
2018-03-04T08:11:37.330Z,55.88
2018-03-04T08:14:06.828Z,56.16
2018-03-04T08:16:36.076Z,56.47
2018-03-04T08:19:05.019Z,56.05
2018-03-04T08:21:33.938Z,54.59
2018-03-04T08:24:02.833Z,54.42
2018-03-04T08:28:39.104Z,54.41
2018-03-04T08:31:08.557Z,54.47
2018-03-04T08:33:37.450Z,54.26
2018-03-04T08:36:06.370Z,53.69
2018-03-04T08:38:35.652Z,54.02
2018-03-04T08:41:04.762Z,53.49
2018-03-04T08:43:33.856Z,52.96
2018-03-04T08:46:03.158Z,52.40
2018-03-04T08:48:32.047Z,51.44
2018-03-04T08:51:01.252Z,52.47
2018-03-04T08:53:30.646Z,52.29
2018-03-04T08:55:59.743Z,52.69
2018-03-04T08:58:28.642Z,51.94
2018-03-04T09:00:57.748Z,51.94
2018-03-04T09:03:26.640Z,50.51
2018-03-04T09:05:55.822Z,50.70
2018-03-04T09:08:25.023Z,50.36
2018-03-04T09:10:53.950Z,49.78
2018-03-04T09:13:22.998Z,49.88
2018-03-04T09:15:52.671Z,49.52
2018-03-04T09:18:21.796Z,49.59
2018-03-04T09:20:50.881Z,49.31
2018-03-04T09:23:20.414Z,48.05
2018-03-04T09:25:50.313Z,48.20
2018-03-04T09:28:19.186Z,48.54
2018-03-04T09:30:48.098Z,47.86
2018-03-04T09:33:17.046Z,47.75
2018-03-04T09:35:47.725Z,47.19
2018-03-04T09:38:16.642Z,47.01
2018-03-04T09:40:46.723Z,46.82
2018-03-04T09:43:15.622Z,46.93
2018-03-04T09:45:44.921Z,46.67
2018-03-04T09:48:13.964Z,46.63
2018-03-04T09:50:44.237Z,45.97
2018-03-04T09:53:13.440Z,46.52
2018-03-04T09:55:42.522Z,45.34
2018-03-04T09:58:11.358Z,46.57
2018-03-04T10:00:40.927Z,45.96
2018-03-04T10:03:10.022Z,45.80
2018-03-04T10:05:38.913Z,45.04
2018-03-04T10:08:08.006Z,44.97
2018-03-04T10:10:37.269Z,44.40
2018-03-04T10:13:06.402Z,43.36
2018-03-04T10:15:35.526Z,43.39
2018-03-04T10:18:04.591Z,42.62
2018-03-04T10:20:33.421Z,42.25
2018-03-04T10:23:02.571Z,41.25
2018-03-04T10:25:32.012Z,40.62
2018-03-04T10:28:01.177Z,41.03
2018-03-04T10:30:30.272Z,41.70
2018-03-04T10:32:59.233Z,42.86
2018-03-04T10:35:28.257Z,42.95
2018-03-04T10:37:57.355Z,42.53
2018-03-04T10:40:26.443Z,42.05
2018-03-04T10:42:55.329Z,40.98
2018-03-04T10:45:24.461Z,40.69
2018-03-04T10:47:53.734Z,39.56
2018-03-04T10:50:23.034Z,39.48
2018-03-04T10:52:52.081Z,39.50
2018-03-04T10:55:21.219Z,38.84
2018-03-04T10:57:50.320Z,40.06
2018-03-04T11:00:23.438Z,39.20
2018-03-04T11:02:57.111Z,39.28
2018-03-04T11:05:26.022Z,38.31
2018-03-04T11:07:55.091Z,37.40
2018-03-04T11:10:24.364Z,36.29
2018-03-04T11:12:53.386Z,35.90
2018-03-04T11:15:22.389Z,36.79
2018-03-04T11:17:51.469Z,36.54
2018-03-04T11:20:20.526Z,35.68
2018-03-04T11:22:49.461Z,37.49
2018-03-04T11:25:18.638Z,36.81
2018-03-04T11:27:47.866Z,34.21
2018-03-04T11:30:16.947Z,34.79
2018-03-04T11:32:45.851Z,33.96
2018-03-04T11:35:15.454Z,33.26
2018-03-04T11:37:45.361Z,31.31
2018-03-04T11:40:14.582Z,32.76
2018-03-04T11:42:44.745Z,33.63
2018-03-04T11:45:14.199Z,32.32
2018-03-04T11:47:43.077Z,31.59
2018-03-04T11:50:12.171Z,30.14
2018-03-04T11:52:41.454Z,31.32
2018-03-04T11:55:10.567Z,31.81
2018-03-04T11:57:40.462Z,32.85
2018-03-04T12:00:10.356Z,29.79
2018-03-04T12:02:40.147Z,30.76
2018-03-04T12:05:09.204Z,31.17
2018-03-04T12:07:38.294Z,30.89
2018-03-04T12:10:07.174Z,27.89
2018-03-04T12:12:36.068Z,30.89
2018-03-04T12:15:05.372Z,29.01
2018-03-04T12:17:34.431Z,29.75
2018-03-04T12:20:03.549Z,32.21
2018-03-04T12:22:32.391Z,31.30
2018-03-04T12:25:01.505Z,32.33
2018-03-04T12:27:30.648Z,31.74
2018-03-04T12:29:59.953Z,34.02
2018-03-04T12:32:29.248Z,34.43
2018-03-04T12:34:58.132Z,34.47
2018-03-04T12:37:27.283Z,33.18
2018-03-04T12:39:56.299Z,35.52
2018-03-04T12:42:25.432Z,33.82
2018-03-04T12:44:55.651Z,31.59
2018-03-04T12:47:24.836Z,32.31
2018-03-04T12:49:56.322Z,29.89
2018-03-04T12:52:25.507Z,29.66
2018-03-04T12:54:54.998Z,32.21
2018-03-04T12:57:24.292Z,33.20
2018-03-04T12:59:55.108Z,32.69
2018-03-04T13:02:26.469Z,32.14
2018-03-04T13:04:56.298Z,32.42
2018-03-04T13:07:25.245Z,32.75
2018-03-04T13:09:54.431Z,31.07
2018-03-04T13:12:23.581Z,32.14
2018-03-04T13:14:52.665Z,30.48
2018-03-04T13:17:21.764Z,31.19
2018-03-04T13:19:51.083Z,29.49
2018-03-04T13:22:20.197Z,28.48
2018-03-04T13:24:49.042Z,28.64
2018-03-04T13:27:17.931Z,28.86
2018-03-04T13:29:46.840Z,27.26
2018-03-04T13:32:16.143Z,25.87
2018-03-04T13:34:45.773Z,24.73
2018-03-04T13:37:17.166Z,25.88
2018-03-04T13:39:46.692Z,26.35
2018-03-04T13:42:15.792Z,26.50
2018-03-04T13:44:44.754Z,24.74
2018-03-04T13:47:13.568Z,25.72
2018-03-04T13:49:46.155Z,25.28
2018-03-04T13:52:15.240Z,27.87
2018-03-04T13:54:44.548Z,27.46
2018-03-04T13:57:13.391Z,28.62
2018-03-04T13:59:42.929Z,30.08
2018-03-04T14:02:11.854Z,31.91
2018-03-04T14:04:40.714Z,34.65
2018-03-04T14:07:10.149Z,35.77
2018-03-04T14:09:39.112Z,35.30
2018-03-04T14:12:08.422Z,35.44
2018-03-04T14:14:37.516Z,36.26
2018-03-04T14:17:06.580Z,35.81
2018-03-04T14:19:35.406Z,36.59
2018-03-04T14:22:04.437Z,36.25
2018-03-04T14:24:33.280Z,35.73
2018-03-04T14:27:02.491Z,35.24
2018-03-04T14:29:31.475Z,36.04
2018-03-04T14:32:00.565Z,35.30
2018-03-04T14:34:30.314Z,35.82
2018-03-04T14:36:59.134Z,36.24
2018-03-04T14:39:28.224Z,36.97
2018-03-04T14:41:57.079Z,36.32
2018-03-04T14:44:30.830Z,36.85
2018-03-04T14:47:00.654Z,37.13
2018-03-04T14:49:29.552Z,37.05
2018-03-04T14:51:58.699Z,37.37
2018-03-04T14:54:27.688Z,37.37
2018-03-04T14:56:57.458Z,36.89
2018-03-04T14:59:26.239Z,36.92
2018-03-04T15:01:55.226Z,37.06
2018-03-04T15:04:24.119Z,37.08
2018-03-04T15:06:53.019Z,37.13
2018-03-04T15:09:21.929Z,37.61
2018-03-04T15:11:51.003Z,37.82
2018-03-04T15:14:20.312Z,37.77
2018-03-04T15:16:49.397Z,37.93
2018-03-04T15:19:18.702Z,37.79
2018-03-04T15:21:48.226Z,37.89
2018-03-04T15:24:16.874Z,37.96
2018-03-04T15:26:45.815Z,38.14
2018-03-04T15:29:14.582Z,38.36
2018-03-04T15:31:43.900Z,38.26
2018-03-04T15:34:13.474Z,38.27
2018-03-04T15:36:42.605Z,37.90
2018-03-04T15:39:11.357Z,37.62
2018-03-04T15:41:40.317Z,38.08
2018-03-04T15:44:14.772Z,38.55
2018-03-04T15:46:43.999Z,38.51
2018-03-04T15:49:13.281Z,38.12
2018-03-04T15:51:42.801Z,38.23
2018-03-04T15:54:12.997Z,38.70
2018-03-04T15:56:41.830Z,38.93
2018-03-04T15:59:10.893Z,39.19
2018-03-04T16:01:40.235Z,38.99
2018-03-04T16:04:09.155Z,39.35
2018-03-04T16:06:38.239Z,39.53
2018-03-04T16:09:07.158Z,39.93
2018-03-04T16:11:36.623Z,39.74
2018-03-04T16:14:05.595Z,39.91
2018-03-04T16:16:34.650Z,40.43
2018-03-04T16:19:03.546Z,40.25
2018-03-04T16:21:32.432Z,40.19
2018-03-04T16:24:01.521Z,40.62
2018-03-04T16:26:30.507Z,40.84
2018-03-04T16:29:00.155Z,40.09
2018-03-04T16:31:29.200Z,40.46
2018-03-04T16:33:58.049Z,40.83
2018-03-04T16:36:27.056Z,40.64
2018-03-04T16:38:56.143Z,40.59
2018-03-04T16:41:25.389Z,41.04
2018-03-04T16:43:55.535Z,40.70
2018-03-04T16:46:24.699Z,40.80
2018-03-04T16:48:53.495Z,40.99
2018-03-04T16:51:22.800Z,40.66
2018-03-04T16:53:52.103Z,41.20
2018-03-04T16:56:21.199Z,41.41
2018-03-04T16:58:50.086Z,41.38
2018-03-04T17:01:18.981Z,40.91
2018-03-04T17:03:48.093Z,41.10
2018-03-04T17:06:17.367Z,41.12
2018-03-04T17:08:46.687Z,41.16
2018-03-04T17:11:15.613Z,40.90
2018-03-04T17:13:44.455Z,40.89
2018-03-04T17:16:13.390Z,41.16
2018-03-04T17:18:42.237Z,41.79
2018-03-04T17:21:13.586Z,41.07
2018-03-04T17:23:42.909Z,41.32
2018-03-04T17:26:11.771Z,40.72
2018-03-04T17:28:40.658Z,40.55
2018-03-04T17:31:09.755Z,40.38
2018-03-04T17:33:38.855Z,40.60
2018-03-04T17:36:08.124Z,39.97
2018-03-04T17:38:37.245Z,39.77
2018-03-04T17:41:06.479Z,40.01
2018-03-04T17:43:35.644Z,40.19
2018-03-04T17:46:04.515Z,39.75
2018-03-04T17:48:33.314Z,39.97
2018-03-04T17:51:02.522Z,40.64
2018-03-04T17:53:31.615Z,40.55
2018-03-04T17:56:00.502Z,40.70
2018-03-04T17:58:29.392Z,40.47
2018-03-04T18:00:58.491Z,40.60
2018-03-04T18:03:27.382Z,41.15
2018-03-04T18:05:56.434Z,41.01
2018-03-04T18:08:25.651Z,41.20
2018-03-04T18:10:54.718Z,41.31
2018-03-04T18:13:23.847Z,41.42
2018-03-04T18:15:52.696Z,41.16
2018-03-04T18:18:21.821Z,41.18
2018-03-04T18:20:50.842Z,41.28
2018-03-04T18:23:19.816Z,41.44
2018-03-04T18:25:49.038Z,41.29
2018-03-04T18:28:18.130Z,41.04
2018-03-04T18:30:47.695Z,41.22
2018-03-04T18:33:16.535Z,40.79
2018-03-04T18:35:45.819Z,41.21
2018-03-04T18:38:14.918Z,41.22
2018-03-04T18:40:43.814Z,41.09
2018-03-04T18:43:13.092Z,41.13
2018-03-04T18:45:42.200Z,41.35
2018-03-04T18:48:11.506Z,41.68
2018-03-04T18:50:40.491Z,41.65
2018-03-04T18:53:09.234Z,41.46
2018-03-04T18:55:38.445Z,41.33
2018-03-04T18:58:07.610Z,41.40
2018-03-04T19:00:36.572Z,41.53
2018-03-04T19:03:06.842Z,41.60
2018-03-04T19:05:35.957Z,42.06
2018-03-04T19:08:04.925Z,42.01
2018-03-04T19:10:33.940Z,42.29
2018-03-04T19:13:02.868Z,42.54
2018-03-04T19:15:31.953Z,42.49
2018-03-04T19:18:00.853Z,42.39
2018-03-04T19:20:30.152Z,42.30
2018-03-04T19:22:59.266Z,42.62
2018-03-04T19:25:28.556Z,42.65
2018-03-04T19:27:57.711Z,42.46
2018-03-04T19:30:26.788Z,42.49
2018-03-04T19:32:55.619Z,42.33
2018-03-04T19:35:24.721Z,42.79
2018-03-04T19:37:53.815Z,42.53
2018-03-04T19:40:23.121Z,42.21
2018-03-04T19:42:52.489Z,42.82
2018-03-04T19:45:21.708Z,42.90
2018-03-04T19:47:50.796Z,43.00
2018-03-04T19:50:19.903Z,43.07
2018-03-04T19:52:48.760Z,42.85
2018-03-04T19:55:18.032Z,43.21
2018-03-04T19:57:46.998Z,43.31
2018-03-04T20:00:16.690Z,43.56
2018-03-04T20:02:45.918Z,43.56
2018-03-04T20:05:15.080Z,43.54
2018-03-04T20:07:44.769Z,43.59
2018-03-04T20:10:14.089Z,43.74
2018-03-04T20:12:43.375Z,43.89
2018-03-04T20:15:13.013Z,43.77
2018-03-04T20:17:41.908Z,44.16
2018-03-04T20:20:12.022Z,44.23
2018-03-04T20:22:41.288Z,44.26
2018-03-04T20:25:10.209Z,44.45
2018-03-04T20:27:39.309Z,44.25
2018-03-04T20:30:08.205Z,44.55
2018-03-04T20:32:37.089Z,44.78
2018-03-04T20:35:06.495Z,44.40
2018-03-04T20:37:35.439Z,44.94
2018-03-04T20:40:04.322Z,44.81
2018-03-04T20:42:33.363Z,44.91
2018-03-04T20:45:02.873Z,44.95
2018-03-04T20:47:32.845Z,44.45
2018-03-04T20:50:01.859Z,45.04
2018-03-04T20:52:30.742Z,45.25
2018-03-04T20:54:59.812Z,45.37
2018-03-04T20:57:29.587Z,45.51
2018-03-04T20:59:58.261Z,45.48
2018-03-04T21:02:31.634Z,45.56
2018-03-04T21:05:00.799Z,45.94
2018-03-04T21:07:29.600Z,45.72
2018-03-04T21:09:58.805Z,45.80
2018-03-04T21:12:27.626Z,46.04
2018-03-04T21:14:56.515Z,45.81
2018-03-04T21:17:26.678Z,45.98
2018-03-04T21:19:55.328Z,45.94
2018-03-04T21:22:24.648Z,46.38
2018-03-04T21:24:53.472Z,46.24
2018-03-04T21:27:22.616Z,46.31
2018-03-04T21:29:51.435Z,46.41
2018-03-04T21:32:20.343Z,46.05
2018-03-04T21:34:50.096Z,46.29
2018-03-04T21:37:19.816Z,46.53
2018-03-04T21:39:49.566Z,46.64
2018-03-04T21:42:18.556Z,46.86
2018-03-04T21:44:47.971Z,46.51
2018-03-04T21:47:17.218Z,46.51
2018-03-04T21:49:46.303Z,46.45
2018-03-04T21:52:15.407Z,45.91
2018-03-04T21:54:44.502Z,46.06
2018-03-04T21:57:13.594Z,46.88
2018-03-04T21:59:42.689Z,47.28
2018-03-04T22:02:18.493Z,47.10
2018-03-04T22:04:47.495Z,47.15
2018-03-04T22:07:16.323Z,47.22
2018-03-04T22:09:45.527Z,46.86
2018-03-04T22:12:14.515Z,47.53
2018-03-04T22:14:43.387Z,47.19
2018-03-04T22:17:12.473Z,47.33
2018-03-04T22:19:41.586Z,47.62
2018-03-04T22:22:10.489Z,47.71
2018-03-04T22:24:39.567Z,48.18
2018-03-04T22:27:08.515Z,48.38
2018-03-04T22:29:37.565Z,48.01
2018-03-04T22:32:06.398Z,48.46
2018-03-04T22:34:35.346Z,48.57
2018-03-04T22:37:04.244Z,48.32
2018-03-04T22:39:33.130Z,48.14
2018-03-04T22:42:02.228Z,48.65
2018-03-04T22:44:31.107Z,48.22
2018-03-04T22:47:00.018Z,48.35
2018-03-04T22:49:29.034Z,48.52
2018-03-04T22:51:58.318Z,48.44
2018-03-04T22:54:27.705Z,48.41
2018-03-04T22:56:56.424Z,48.46
2018-03-04T22:59:25.483Z,48.49
2018-03-04T23:01:54.364Z,49.16
2018-03-04T23:04:23.458Z,48.93
2018-03-04T23:06:52.564Z,49.36
2018-03-04T23:09:21.574Z,49.62
2018-03-04T23:11:51.983Z,49.37
2018-03-04T23:14:21.130Z,49.45
2018-03-04T23:16:50.172Z,49.11
2018-03-04T23:19:19.034Z,49.15
2018-03-04T23:21:48.157Z,49.33
2018-03-04T23:24:17.102Z,49.47
2018-03-04T23:26:46.511Z,49.18
2018-03-04T23:29:15.439Z,49.32
2018-03-04T23:31:44.535Z,49.54
2018-03-04T23:34:13.429Z,49.20
2018-03-04T23:36:42.310Z,49.47
2018-03-04T23:39:11.259Z,49.03
2018-03-04T23:41:40.098Z,49.50
2018-03-04T23:44:09.187Z,49.57
2018-03-04T23:46:38.295Z,49.65
2018-03-04T23:49:07.318Z,49.29
2018-03-04T23:51:36.258Z,49.26
2018-03-04T23:54:05.073Z,48.76
2018-03-04T23:56:33.806Z,49.49
2018-03-04T23:59:02.638Z,49.70
